createdAt,value
2017-09-01T00:02:17.328Z,16.33
2017-09-01T00:05:19.412Z,16.10
2017-09-01T00:08:20.873Z,13.40
2017-09-01T00:11:22.203Z,7.67
2017-09-01T00:14:23.538Z,11.77
2017-09-01T00:17:24.841Z,10.27
2017-09-01T00:20:26.173Z,14.90
2017-09-01T00:23:27.490Z,12.93
2017-09-01T00:26:28.806Z,6.20
2017-09-01T00:29:30.112Z,13.63
2017-09-01T00:32:32.281Z,9.47
2017-09-01T00:35:33.665Z,16.27
2017-09-01T00:38:35.000Z,8.80
2017-09-01T00:41:36.449Z,11.90
2017-09-01T00:44:37.778Z,8.97
2017-09-01T00:47:39.143Z,13.23
2017-09-01T00:50:40.464Z,13.40
2017-09-01T00:53:41.849Z,14.00
2017-09-01T00:56:43.208Z,25.43
2017-09-01T00:59:44.589Z,11.03
2017-09-01T01:02:45.933Z,16.00
2017-09-01T01:05:47.294Z,13.73
2017-09-01T01:08:48.648Z,7.50
2017-09-01T01:11:50.045Z,10.70
2017-09-01T01:14:51.414Z,10.60
2017-09-01T01:17:52.785Z,8.00
2017-09-01T01:20:54.165Z,25.00
2017-09-01T01:23:55.506Z,14.37
2017-09-01T01:26:56.901Z,23.33
2017-09-01T01:29:58.243Z,9.47
2017-09-01T01:32:59.623Z,13.57
2017-09-01T01:36:00.983Z,13.73
2017-09-01T01:39:02.363Z,12.03
2017-09-01T01:42:04.137Z,13.53
2017-09-01T01:45:05.473Z,11.50
2017-09-01T01:48:06.861Z,13.03
2017-09-01T01:51:08.229Z,12.43
2017-09-01T01:54:09.600Z,19.60
2017-09-01T01:57:10.933Z,8.40
2017-09-01T02:00:12.324Z,15.10
2017-09-01T02:03:13.738Z,15.33
2017-09-01T02:06:15.080Z,9.77
2017-09-01T02:09:16.465Z,10.70
2017-09-01T02:12:17.845Z,8.93
2017-09-01T02:15:19.312Z,14.70
2017-09-01T02:18:20.664Z,9.73
2017-09-01T02:21:22.038Z,13.33
2017-09-01T02:24:23.429Z,7.20
2017-09-01T02:27:24.789Z,8.07
2017-09-01T02:30:26.138Z,10.87
2017-09-01T02:33:27.501Z,8.83
2017-09-01T02:36:28.850Z,11.60
2017-09-01T02:39:30.229Z,13.40
2017-09-01T02:42:31.764Z,21.63
2017-09-01T02:45:33.188Z,10.50
2017-09-01T02:48:34.584Z,16.37
2017-09-01T02:51:35.965Z,9.27
2017-09-01T02:54:37.373Z,14.10
2017-09-01T02:57:38.722Z,12.70
2017-09-01T03:00:40.208Z,8.60
2017-09-01T03:03:41.549Z,13.10
2017-09-01T03:06:42.929Z,14.90
2017-09-01T03:09:44.265Z,11.13
2017-09-01T03:12:45.649Z,15.83
2017-09-01T03:15:47.061Z,13.60
2017-09-01T03:18:48.500Z,11.60
2017-09-01T03:21:50.284Z,12.40
2017-09-01T03:24:51.661Z,17.67
2017-09-01T03:27:53.049Z,14.50
2017-09-01T03:30:54.387Z,8.53
2017-09-01T03:33:55.757Z,9.93
2017-09-01T03:36:57.109Z,12.23
2017-09-01T03:39:58.461Z,25.97
2017-09-01T03:42:59.820Z,16.63
2017-09-01T03:46:01.165Z,16.13
2017-09-01T03:49:02.657Z,11.63
2017-09-01T03:52:03.994Z,10.07
2017-09-01T03:55:05.365Z,11.67
2017-09-01T03:58:06.717Z,11.57
2017-09-01T04:01:08.112Z,13.50
2017-09-01T04:04:09.445Z,17.63
2017-09-01T04:07:10.777Z,14.43
2017-09-01T04:10:12.420Z,23.60
2017-09-01T04:13:13.804Z,14.50
2017-09-01T04:16:15.184Z,20.83
2017-09-01T04:19:16.585Z,17.03
2017-09-01T04:22:17.990Z,8.27
2017-09-01T04:25:19.412Z,11.40
2017-09-01T04:28:20.771Z,16.87
2017-09-01T04:31:22.134Z,9.57
2017-09-01T04:34:23.553Z,16.23
2017-09-01T04:37:24.877Z,14.47
2017-09-01T04:40:26.272Z,20.53
2017-09-01T04:43:27.621Z,17.47
2017-09-01T04:46:28.997Z,22.13
2017-09-01T04:49:30.560Z,17.43
2017-09-01T04:52:31.878Z,11.30
2017-09-01T04:55:33.254Z,16.10
2017-09-01T04:58:34.592Z,23.87
2017-09-01T05:01:35.921Z,19.50
2017-09-01T05:04:37.241Z,17.33
2017-09-01T05:07:38.636Z,21.00
2017-09-01T05:10:40.010Z,17.40
2017-09-01T05:13:41.370Z,29.43
2017-09-01T05:16:42.768Z,17.97
2017-09-01T05:19:44.129Z,24.17
2017-09-01T05:22:45.471Z,13.77
2017-09-01T05:25:46.801Z,14.03
2017-09-01T05:28:48.153Z,14.77
2017-09-01T05:31:49.492Z,16.03
2017-09-01T05:34:50.868Z,19.50
2017-09-01T05:37:52.218Z,18.13
2017-09-01T05:40:53.557Z,17.47
2017-09-01T05:43:55.252Z,17.20
2017-09-01T05:46:56.546Z,17.40
2017-09-01T05:49:57.928Z,20.73
2017-09-01T05:52:59.244Z,25.30
2017-09-01T05:56:00.565Z,27.07
2017-09-01T05:59:01.865Z,20.50
2017-09-01T06:02:03.217Z,21.90
2017-09-01T06:05:04.556Z,25.30
2017-09-01T06:08:05.923Z,23.20
2017-09-01T06:11:07.296Z,21.27
2017-09-01T06:14:08.621Z,21.73
2017-09-01T06:17:09.968Z,20.13
2017-09-01T06:20:11.241Z,27.97
2017-09-01T06:23:12.584Z,25.13
2017-09-01T06:26:13.871Z,20.63
2017-09-01T06:29:15.213Z,30.70
2017-09-01T06:32:17.538Z,29.73
2017-09-01T06:35:18.860Z,31.40
2017-09-01T06:38:20.441Z,19.80
2017-09-01T06:41:21.737Z,21.43
2017-09-01T06:44:23.073Z,41.77
2017-09-01T06:47:24.365Z,26.63
2017-09-01T06:50:25.673Z,26.73
2017-09-01T06:53:26.984Z,33.53
2017-09-01T06:56:28.301Z,34.30
2017-09-01T06:59:29.738Z,24.10
2017-09-01T07:02:31.769Z,27.30
2017-09-01T07:05:33.077Z,39.37
2017-09-01T07:08:34.361Z,44.73
2017-09-01T07:11:35.765Z,31.87
2017-09-01T07:14:37.069Z,34.17
2017-09-01T07:17:38.429Z,34.20
2017-09-01T07:20:39.722Z,32.47
2017-09-01T07:23:41.088Z,35.67
2017-09-01T07:26:42.409Z,38.80
2017-09-01T07:29:43.724Z,78.27
2017-09-01T07:32:45.084Z,38.60
2017-09-01T07:35:46.408Z,33.10
2017-09-01T07:38:47.757Z,32.87
2017-09-01T07:41:49.085Z,36.70
2017-09-01T07:44:50.440Z,36.63
2017-09-01T07:47:51.777Z,38.77
2017-09-01T07:50:53.085Z,31.97
2017-09-01T07:53:54.416Z,32.70
2017-09-01T07:56:55.857Z,32.93
2017-09-01T07:59:57.165Z,34.33
2017-09-01T08:02:58.501Z,37.73
2017-09-01T08:05:59.792Z,38.73
2017-09-01T08:09:01.143Z,33.63
2017-09-01T08:12:02.482Z,34.57
2017-09-01T08:15:03.813Z,27.10
2017-09-01T08:18:05.157Z,36.37
2017-09-01T08:21:06.461Z,49.50
2017-09-01T08:24:07.808Z,30.57
2017-09-01T08:27:09.101Z,29.90
2017-09-01T08:30:10.454Z,31.10
2017-09-01T08:33:11.733Z,30.63
2017-09-01T08:36:13.061Z,30.87
2017-09-01T08:39:14.388Z,36.00
2017-09-01T08:42:15.718Z,30.80
2017-09-01T08:45:17.212Z,50.50
2017-09-01T08:48:18.505Z,28.20
2017-09-01T08:51:19.862Z,34.30
2017-09-01T08:54:21.153Z,23.63
2017-09-01T08:57:22.505Z,20.53
2017-09-01T09:00:23.807Z,19.63
2017-09-01T09:03:25.874Z,18.93
2017-09-01T09:06:27.204Z,18.93
2017-09-01T09:09:28.536Z,20.30
2017-09-01T09:12:29.918Z,31.73
2017-09-01T09:15:31.237Z,18.20
2017-09-01T09:18:32.553Z,20.50
2017-09-01T09:21:33.881Z,26.37
2017-09-01T09:24:35.229Z,28.80
2017-09-01T09:27:36.529Z,30.00
2017-09-01T09:30:37.861Z,30.57
2017-09-01T09:33:39.161Z,34.97
2017-09-01T09:36:40.496Z,28.83
2017-09-01T09:39:41.843Z,26.60
2017-09-01T09:42:43.152Z,29.13
2017-09-01T09:45:44.488Z,27.60
2017-09-01T09:48:45.808Z,36.90
2017-09-01T09:51:47.149Z,36.83
2017-09-01T09:54:48.680Z,33.03
2017-09-01T09:57:49.984Z,23.70
2017-09-01T10:00:51.322Z,38.00
2017-09-01T10:03:52.626Z,23.27
2017-09-01T10:06:54.019Z,26.57
2017-09-01T10:09:55.337Z,34.43
2017-09-01T10:12:56.718Z,26.57
2017-09-01T10:15:58.077Z,23.47
2017-09-01T10:18:59.388Z,32.23
2017-09-01T10:22:00.760Z,31.50
2017-09-01T10:25:02.073Z,33.87
2017-09-01T10:28:03.460Z,22.03
2017-09-01T10:31:04.801Z,25.53
2017-09-01T10:34:06.144Z,26.23
2017-09-01T10:37:07.464Z,25.93
2017-09-01T10:40:08.812Z,27.67
2017-09-01T10:43:10.144Z,23.17
2017-09-01T10:46:11.437Z,24.73
2017-09-01T10:53:09.485Z,29.30
2017-09-01T10:56:29.249Z,25.57
2017-09-01T10:59:30.561Z,25.37
2017-09-01T11:02:31.873Z,24.13
2017-09-01T11:05:33.210Z,24.40
2017-09-01T11:08:34.524Z,23.27
2017-09-01T11:11:35.881Z,25.10
2017-09-01T11:14:37.597Z,25.00
2017-09-01T11:17:38.928Z,24.90
2017-09-01T11:20:46.498Z,29.67
2017-09-01T11:23:53.884Z,35.47
2017-09-01T11:26:55.232Z,29.03
2017-09-01T11:29:56.918Z,20.83
2017-09-01T11:32:58.228Z,18.87
2017-09-01T11:35:59.692Z,14.10
2017-09-01T11:39:01.001Z,13.43
2017-09-01T11:42:02.317Z,17.00
2017-09-01T11:45:03.660Z,18.80
2017-09-01T11:48:05.002Z,17.40
2017-09-01T11:51:06.306Z,15.83
2017-09-01T11:54:07.644Z,14.67
2017-09-01T11:57:08.981Z,17.63
2017-09-01T12:00:10.325Z,17.13
2017-09-01T12:03:11.662Z,12.90
2017-09-01T12:06:12.946Z,18.07
2017-09-01T12:09:14.288Z,12.27
2017-09-01T12:12:16.049Z,13.63
2017-09-01T12:15:17.354Z,17.73
2017-09-01T12:18:18.793Z,25.40
2017-09-01T12:21:20.128Z,23.43
2017-09-01T12:24:21.481Z,17.10
2017-09-01T12:27:22.796Z,16.30
2017-09-01T12:30:24.152Z,16.40
2017-09-01T12:33:25.433Z,20.53
2017-09-01T12:36:26.809Z,20.13
2017-09-01T12:39:28.154Z,17.70
2017-09-01T12:42:29.480Z,19.97
2017-09-01T12:45:30.897Z,23.33
2017-09-01T12:48:32.194Z,19.93
2017-09-01T12:51:33.533Z,17.23
2017-09-01T12:54:34.837Z,21.60
2017-09-01T12:57:36.201Z,21.60
2017-09-01T13:00:37.730Z,18.20
2017-09-01T13:03:39.037Z,27.97
2017-09-01T13:06:40.345Z,19.93
2017-09-01T13:09:41.668Z,21.13
2017-09-01T13:12:43.064Z,17.70
2017-09-01T13:15:44.368Z,19.43
2017-09-01T13:18:45.685Z,18.90
2017-09-01T13:21:47.004Z,20.87
2017-09-01T13:24:48.393Z,22.70
2017-09-01T13:27:50.017Z,23.40
2017-09-01T13:30:51.318Z,29.53
2017-09-01T13:33:52.698Z,22.87
2017-09-01T13:36:54.017Z,25.40
2017-09-01T13:39:55.437Z,25.30
2017-09-01T13:42:56.729Z,22.90
2017-09-01T13:45:58.050Z,20.47
2017-09-01T13:48:59.377Z,19.63
2017-09-01T13:52:00.706Z,19.23
2017-09-01T13:55:02.020Z,15.67
2017-09-01T13:58:03.352Z,22.77
2017-09-01T14:01:04.673Z,14.67
2017-09-01T14:04:05.994Z,15.33
2017-09-01T14:07:07.449Z,19.20
2017-09-01T14:10:08.738Z,19.23
2017-09-01T14:13:10.083Z,14.60
2017-09-01T14:16:11.409Z,18.77
2017-09-01T14:19:12.749Z,17.87
2017-09-01T14:22:14.029Z,17.00
2017-09-01T14:25:15.358Z,20.30
2017-09-01T14:28:16.801Z,14.13
2017-09-01T14:31:18.110Z,15.77
2017-09-01T14:34:19.417Z,15.67
2017-09-01T14:37:20.732Z,18.43
2017-09-01T14:40:22.078Z,16.10
2017-09-01T14:43:23.361Z,15.60
2017-09-01T14:46:24.681Z,17.70
2017-09-01T14:49:25.957Z,15.70
2017-09-01T14:52:27.277Z,18.90
2017-09-01T14:55:29.772Z,13.17
2017-09-01T14:58:31.144Z,13.57
2017-09-01T15:01:32.512Z,22.37
2017-09-01T15:04:33.836Z,15.40
2017-09-01T15:07:35.188Z,10.30
2017-09-01T15:10:36.503Z,14.23
2017-09-01T15:13:37.858Z,10.63
2017-09-01T15:16:39.201Z,14.83
2017-09-01T15:19:40.549Z,14.97
2017-09-01T15:22:41.996Z,10.83
2017-09-01T15:25:43.320Z,8.23
2017-09-01T15:28:44.828Z,9.03
2017-09-01T15:31:46.121Z,8.83
2017-09-01T15:34:47.433Z,11.50
2017-09-01T15:37:48.764Z,12.20
2017-09-01T15:40:50.089Z,8.17
2017-09-01T15:43:51.409Z,18.30
2017-09-01T15:46:52.761Z,18.83
2017-09-01T15:49:54.484Z,14.63
2017-09-01T15:52:55.817Z,11.90
2017-09-01T15:55:57.147Z,7.27
2017-09-01T15:58:58.425Z,7.97
2017-09-01T16:01:59.800Z,11.63
2017-09-01T16:05:01.116Z,6.77
2017-09-01T16:08:02.481Z,11.53
2017-09-01T16:11:03.801Z,8.33
2017-09-01T16:14:05.145Z,7.53
2017-09-01T16:17:06.921Z,6.20
2017-09-01T16:20:08.229Z,7.53
2017-09-01T16:23:09.672Z,9.20
2017-09-01T16:26:10.977Z,10.43
2017-09-01T16:29:12.306Z,11.00
2017-09-01T16:32:13.587Z,16.67
2017-09-01T16:35:14.921Z,6.47
2017-09-01T16:38:16.220Z,12.33
2017-09-01T16:41:17.573Z,10.83
2017-09-01T16:44:18.857Z,6.93
2017-09-01T16:47:20.181Z,6.73
2017-09-01T16:50:21.511Z,6.87
2017-09-01T16:53:22.825Z,7.93
2017-09-01T16:56:24.169Z,7.73
2017-09-01T16:59:25.489Z,6.33
2017-09-01T17:02:26.821Z,8.20
2017-09-01T17:05:28.132Z,9.13
2017-09-01T17:08:29.496Z,19.50
2017-09-01T17:11:30.858Z,8.47
2017-09-01T17:14:32.322Z,6.50
2017-09-01T17:17:33.654Z,23.20
2017-09-01T17:20:35.041Z,11.13
2017-09-01T17:23:36.610Z,7.10
2017-09-01T17:26:37.972Z,12.30
2017-09-01T17:29:39.370Z,7.60
2017-09-01T17:32:40.748Z,12.50
2017-09-01T17:35:42.112Z,13.60
2017-09-01T17:38:43.475Z,12.93
2017-09-01T17:41:44.852Z,10.03
2017-09-01T17:44:46.151Z,10.20
2017-09-01T17:47:47.523Z,7.20
2017-09-01T17:50:48.961Z,11.80
2017-09-01T17:53:50.266Z,11.40
2017-09-01T17:56:51.638Z,14.97
2017-09-01T17:59:52.957Z,17.37
2017-09-01T18:02:54.326Z,14.70
2017-09-01T18:05:55.677Z,17.40
2017-09-01T18:08:57.041Z,15.30
2017-09-01T18:11:58.414Z,14.97
2017-09-01T18:14:59.784Z,18.30
2017-09-01T18:18:01.213Z,11.77
2017-09-01T18:21:02.572Z,13.40
2017-09-01T18:24:03.946Z,23.03
2017-09-01T18:27:05.278Z,12.93
2017-09-01T18:30:06.689Z,10.23
2017-09-01T18:33:08.053Z,15.33
2017-09-01T18:36:09.429Z,15.87
2017-09-01T18:39:10.772Z,13.73
2017-09-01T18:42:12.129Z,13.43
2017-09-01T18:45:13.500Z,17.87
2017-09-01T18:48:14.853Z,13.70
2017-09-01T18:51:16.327Z,16.00
2017-09-01T18:54:17.661Z,18.33
2017-09-01T18:57:19.049Z,21.70
2017-09-01T19:00:20.442Z,17.40
2017-09-01T19:03:21.791Z,23.80
2017-09-01T19:06:23.141Z,15.60
2017-09-01T19:09:24.616Z,18.40
2017-09-01T19:12:26.301Z,21.43
2017-09-01T19:15:27.676Z,22.53
2017-09-01T19:18:29.036Z,16.37
2017-09-01T19:21:30.361Z,19.83
2017-09-01T19:24:31.747Z,24.33
2017-09-01T19:27:33.192Z,16.20
2017-09-01T19:30:34.574Z,21.00
2017-09-01T19:36:40.093Z,21.40
2017-09-01T19:39:41.453Z,22.37
2017-09-01T19:42:42.818Z,25.83
2017-09-01T19:45:44.156Z,23.63
2017-09-01T19:48:45.538Z,31.17
2017-09-01T19:51:46.866Z,27.47
2017-09-01T19:54:48.289Z,25.67
2017-09-01T19:57:49.857Z,31.33
2017-09-01T20:00:51.222Z,26.33
2017-09-01T20:03:53.012Z,36.07
2017-09-01T20:06:54.353Z,31.43
2017-09-01T20:09:55.761Z,27.60
2017-09-01T20:12:57.140Z,37.00
2017-09-01T20:15:58.486Z,31.33
2017-09-01T20:19:00.059Z,28.73
2017-09-01T20:22:01.414Z,27.37
2017-09-01T20:25:02.776Z,29.97
2017-09-01T20:28:04.164Z,38.70
2017-09-01T20:31:05.518Z,38.60
2017-09-01T20:34:06.893Z,33.97
2017-09-01T20:37:08.238Z,26.13
2017-09-01T20:40:09.636Z,30.20
2017-09-01T20:43:11.161Z,32.70
2017-09-01T20:46:12.497Z,29.27
2017-09-01T20:49:13.958Z,43.23
2017-09-01T20:52:15.327Z,35.30
2017-09-01T20:55:16.709Z,37.03
2017-09-01T20:58:18.066Z,35.93
2017-09-01T21:01:19.473Z,32.87
2017-09-01T21:04:20.837Z,34.30
2017-09-01T21:07:22.197Z,36.03
2017-09-01T21:10:23.597Z,34.83
2017-09-01T21:13:25.008Z,38.20
2017-09-01T21:16:26.382Z,32.43
2017-09-01T21:19:27.742Z,33.77
2017-09-01T21:22:29.099Z,28.73
2017-09-01T21:25:30.408Z,30.87
2017-09-01T21:28:31.879Z,29.33
2017-09-01T21:31:33.197Z,36.00
2017-09-01T21:34:34.536Z,33.07
2017-09-01T21:37:35.856Z,33.67
2017-09-01T21:40:37.210Z,31.60
2017-09-01T21:43:38.510Z,34.07
2017-09-01T21:46:39.845Z,35.20
2017-09-01T21:49:41.369Z,32.23
2017-09-01T21:52:42.681Z,41.30
2017-09-01T21:55:44.133Z,34.90
2017-09-01T21:58:45.481Z,30.90
2017-09-01T22:01:46.848Z,30.87
2017-09-01T22:04:48.137Z,34.60
2017-09-01T22:07:49.455Z,28.43
2017-09-01T22:10:50.766Z,26.67
2017-09-01T22:13:52.177Z,37.83
2017-09-01T22:16:53.502Z,47.07
2017-09-01T22:19:54.817Z,31.30
2017-09-01T22:22:56.124Z,31.80
2017-09-01T22:25:57.469Z,31.10
2017-09-01T22:28:59.048Z,28.63
2017-09-01T22:32:00.376Z,26.17
2017-09-01T22:35:01.708Z,34.20
2017-09-01T22:38:03.014Z,33.70
2017-09-01T22:41:04.322Z,39.83
2017-09-01T22:44:05.625Z,40.73
2017-09-01T22:47:06.977Z,31.83
2017-09-01T22:50:08.300Z,33.97
2017-09-01T22:53:09.629Z,30.67
2017-09-01T22:56:11.073Z,31.37
2017-09-01T22:59:12.385Z,32.03
2017-09-01T23:02:13.732Z,35.43
2017-09-01T23:05:15.110Z,32.90
2017-09-01T23:08:16.464Z,36.63
2017-09-01T23:11:17.800Z,41.10
2017-09-01T23:14:19.157Z,43.03
2017-09-01T23:17:20.469Z,38.13
2017-09-01T23:20:21.848Z,31.37
2017-09-01T23:23:23.134Z,38.70
2017-09-01T23:26:24.465Z,35.63
2017-09-01T23:29:25.754Z,34.37
2017-09-01T23:32:27.073Z,38.03
2017-09-01T23:35:28.373Z,29.70
2017-09-01T23:38:29.707Z,35.43
2017-09-01T23:41:31.426Z,31.67
2017-09-01T23:44:32.736Z,41.33
2017-09-01T23:47:34.074Z,40.03
2017-09-01T23:50:35.380Z,37.03
2017-09-01T23:53:36.689Z,36.93
2017-09-01T23:56:37.985Z,38.17
2017-09-01T23:59:39.313Z,31.40
